Rineyville, KY

11:20 AM EST on December 28, 2014 (GMT -0500)
Glasgow Municipal | Change Station
CLOSE
Current Station
Airport
Location: Glasgow,
Elevation: 715 ft
Nearby Weather Stations

Elev 715 ft 37.03 °N, 85.95 °W | Updated 25 minutes ago

Overcast
Overcast
39 °F
Feels Like 35 °F
N
6
Wind Variable Wind from NNW

Today
High -- | Low -- °F
--% Chance of Precip.
Yesterday
High -- | Low -- °F
Precip. -- in
7:58 AM 5:32 PM
Waxing Crescent, 49% visible
Pressure 30.16 in
Visibility 10.0 miles
Clouds Mostly Cloudy 600 ft
Overcast 1100 ft
Windchill 35 °F
Dew Point 37 °F
Humidity 93%
Rainfall 0.26 in
Snow Depth Not available.
UV 1 out of 12
Pollen .10 out of 12
Air Quality Not available.
Flu Activity Not available.
METAR KGLW 281555Z AUTO 34005KT 10SM BKN006 OVC011 04/03 A3016 RMK AO2 T00390029

More Conditions Fewer Conditions

Pressure 30.16 in
Visibility 10.0 miles
Clouds Mostly Cloudy 600 ft
Overcast 1100 ft
Windchill 35 °F
Dew Point 37 °F
Humidity 93%
Rainfall 0.26 in
Snow Depth Not available.
UV 1 out of 12
Pollen .10 out of 12
Air Quality Not available.
Flu Activity Not available.
METAR KGLW 281555Z AUTO 34005KT 10SM BKN006 OVC011 04/03 A3016 RMK AO2 T00390029

More Conditions Fewer Conditions

10-Day Weather Forecast

Almanac

Astronomy

Dec. 28, 2014 Rise Set
Actual Time
Civil Twilight
Nautical Twilight
Astronomical Twilight
Moon
Length of Visible Light
Length of Day
Tomorrow will be .
, % of the Moon is Illuminated

Today's Extremes

State Highs State Lows

Community

WunderPhotos

Upload Photos

1,781,323 photos uploaded!

WunderBlogs® & News

Nearby

Air Quality

  Air Quality AQ Index Pollutant
Not available.

Snow Depth

Station Depth Elevation

Earthquake Activity

City Distance Mag. Time & Date
Minimum magnitude displayed is 2.5.

Coastal Water Temperatures

Place Temperature

Nearby Weather Stations